createdAt,value
2022-10-22T00:00:22.430Z,2.30
2022-10-22T00:00:54.464Z,2.20
2022-10-22T00:01:27.327Z,2.55
2022-10-22T00:01:59.245Z,2.15
2022-10-22T00:02:31.280Z,2.35
2022-10-22T00:03:03.442Z,2.40
2022-10-22T00:03:35.461Z,2.90
2022-10-22T00:04:07.461Z,2.33
2022-10-22T00:04:39.430Z,2.47
2022-10-22T00:05:11.442Z,2.50
2022-10-22T00:05:43.389Z,2.72
2022-10-22T00:06:15.344Z,2.05
2022-10-22T00:06:47.393Z,2.55
2022-10-22T00:07:20.346Z,2.00
2022-10-22T00:07:52.350Z,2.47
2022-10-22T00:08:24.431Z,2.30
2022-10-22T00:08:56.462Z,2.80
2022-10-22T00:09:28.457Z,2.47
2022-10-22T00:10:00.367Z,2.50
2022-10-22T00:10:32.373Z,2.20
2022-10-22T00:11:24.539Z,2.25
2022-10-22T00:11:56.451Z,2.30
2022-10-22T00:12:28.493Z,2.13
2022-10-22T00:13:00.507Z,2.35
2022-10-22T00:13:32.505Z,2.45
2022-10-22T00:14:04.768Z,2.20
2022-10-22T00:14:36.894Z,2.38
2022-10-22T00:15:09.123Z,2.30
2022-10-22T00:15:41.223Z,2.17
2022-10-22T00:16:13.173Z,2.25
2022-10-22T00:16:45.182Z,2.50
2022-10-22T00:17:17.327Z,2.42
2022-10-22T00:17:49.777Z,2.30
2022-10-22T00:18:21.783Z,2.40
2022-10-22T00:18:53.769Z,2.58
2022-10-22T00:19:25.719Z,2.03
2022-10-22T00:19:57.660Z,2.65
2022-10-22T00:20:29.621Z,2.25
2022-10-22T00:21:02.393Z,2.35
2022-10-22T00:21:34.343Z,2.60
2022-10-22T00:22:06.607Z,2.15
2022-10-22T00:22:38.543Z,2.05
2022-10-22T00:23:10.519Z,2.30
2022-10-22T00:23:43.181Z,2.08
2022-10-22T00:24:15.609Z,2.50
2022-10-22T00:24:47.532Z,2.33
2022-10-22T00:25:19.540Z,2.00
2022-10-22T00:25:52.865Z,2.75
2022-10-22T00:26:24.876Z,2.65
2022-10-22T00:26:56.836Z,2.28
2022-10-22T00:27:28.801Z,2.78
2022-10-22T00:28:00.859Z,3.00
2022-10-22T00:28:32.906Z,2.60
2022-10-22T00:29:04.987Z,2.80
2022-10-22T00:29:37.107Z,2.35
2022-10-22T00:30:10.254Z,2.35
2022-10-22T00:30:42.188Z,2.67
2022-10-22T00:31:15.641Z,2.45
2022-10-22T00:31:49.954Z,2.50
2022-10-22T00:32:21.952Z,2.45
2022-10-22T00:32:53.911Z,2.67
2022-10-22T00:33:26.399Z,2.55
2022-10-22T00:33:58.295Z,2.78
2022-10-22T00:34:30.316Z,2.38
2022-10-22T00:35:02.314Z,2.70
2022-10-22T00:35:35.126Z,2.70
2022-10-22T00:36:07.383Z,2.85
2022-10-22T00:36:39.330Z,2.60
2022-10-22T00:37:11.256Z,2.85
2022-10-22T00:37:43.345Z,2.65
2022-10-22T00:38:15.939Z,2.85
2022-10-22T00:38:47.858Z,3.00
2022-10-22T00:39:22.335Z,2.65
2022-10-22T00:39:54.282Z,2.50
2022-10-22T00:40:26.732Z,2.83
2022-10-22T00:40:58.744Z,2.78
2022-10-22T00:41:30.690Z,2.92
2022-10-22T00:42:02.655Z,2.72
2022-10-22T00:42:34.634Z,2.83
2022-10-22T00:43:06.582Z,3.00
2022-10-22T00:44:01.432Z,2.63
2022-10-22T00:44:52.567Z,2.95
2022-10-22T00:45:25.800Z,2.50
2022-10-22T00:45:57.742Z,2.60
2022-10-22T00:46:29.986Z,2.47
2022-10-22T00:47:01.941Z,3.08
2022-10-22T00:47:35.967Z,2.42
2022-10-22T00:48:17.482Z,2.80
2022-10-22T00:48:49.939Z,3.17
2022-10-22T00:49:21.930Z,2.47
2022-10-22T00:49:55.256Z,2.67
2022-10-22T00:50:33.816Z,2.72
2022-10-22T00:51:07.849Z,2.40
2022-10-22T00:51:39.876Z,2.50
2022-10-22T00:52:12.211Z,2.58
2022-10-22T00:52:44.320Z,2.40
2022-10-22T00:53:18.450Z,2.53
2022-10-22T00:53:53.510Z,2.33
2022-10-22T00:54:25.512Z,2.40
2022-10-22T00:54:57.678Z,2.67
2022-10-22T00:55:29.981Z,2.72
2022-10-22T00:56:02.161Z,2.95
2022-10-22T00:56:34.226Z,3.17
2022-10-22T00:57:06.179Z,2.53
2022-10-22T00:57:38.188Z,2.70
2022-10-22T00:58:10.730Z,2.20
2022-10-22T00:58:47.027Z,2.80
2022-10-22T00:59:19.347Z,2.42
2022-10-22T00:59:51.441Z,2.60
2022-10-22T01:00:23.501Z,2.38
2022-10-22T01:00:56.446Z,2.30
2022-10-22T01:01:30.040Z,2.10
2022-10-22T01:02:02.098Z,2.35
2022-10-22T01:02:34.220Z,2.38
2022-10-22T01:03:06.508Z,2.30
2022-10-22T01:03:38.441Z,2.42
2022-10-22T01:04:10.462Z,2.30
2022-10-22T01:04:42.994Z,2.30
2022-10-22T01:05:15.106Z,2.40
2022-10-22T01:05:52.157Z,3.08
2022-10-22T01:06:26.186Z,2.50
2022-10-22T01:06:58.229Z,2.60
2022-10-22T01:07:30.361Z,2.70
2022-10-22T01:08:02.412Z,2.65
2022-10-22T01:08:43.901Z,3.13
2022-10-22T01:09:15.867Z,2.75
2022-10-22T01:09:47.794Z,3.15
2022-10-22T01:10:38.622Z,2.90
2022-10-22T01:11:18.647Z,2.60
2022-10-22T01:11:53.669Z,2.83
2022-10-22T01:12:26.314Z,2.92
2022-10-22T01:13:07.602Z,3.08
2022-10-22T01:13:39.543Z,3.45
2022-10-22T01:14:34.220Z,3.28
2022-10-22T01:15:18.382Z,3.17
2022-10-22T01:15:59.360Z,3.17
2022-10-22T01:16:41.978Z,3.22
2022-10-22T01:17:32.579Z,2.72
2022-10-22T01:18:07.512Z,2.78
2022-10-22T01:18:56.869Z,2.63
2022-10-22T01:19:47.593Z,3.10
2022-10-22T01:20:31.322Z,3.25
2022-10-22T01:21:03.301Z,3.85
2022-10-22T01:21:43.252Z,3.00
2022-10-22T01:22:15.175Z,3.45
2022-10-22T01:23:13.544Z,3.03
2022-10-22T01:24:00.753Z,2.80
2022-10-22T01:24:38.532Z,2.97
2022-10-22T01:25:25.911Z,3.25
2022-10-22T01:26:20.159Z,3.20
2022-10-22T01:26:59.552Z,3.08
2022-10-22T01:27:57.226Z,3.40
2022-10-22T01:28:41.850Z,3.28
2022-10-22T01:29:46.393Z,2.72
2022-10-22T01:30:18.592Z,3.25
2022-10-22T01:30:51.424Z,3.00
2022-10-22T01:31:25.667Z,2.95
2022-10-22T01:32:02.487Z,2.95
2022-10-22T01:32:45.827Z,2.40
2022-10-22T01:33:19.145Z,2.65
2022-10-22T01:33:53.176Z,2.53
2022-10-22T01:34:25.786Z,2.75
2022-10-22T01:35:00.903Z,2.88
2022-10-22T01:35:35.048Z,3.08
2022-10-22T01:36:07.763Z,3.08
2022-10-22T01:36:40.040Z,2.50
2022-10-22T01:37:13.794Z,2.40
2022-10-22T01:37:47.233Z,2.55
2022-10-22T01:38:21.109Z,2.88
2022-10-22T01:38:53.370Z,2.90
2022-10-22T01:39:27.104Z,2.70
2022-10-22T01:40:00.412Z,2.60
2022-10-22T01:40:32.954Z,2.60
2022-10-22T01:41:05.027Z,2.58
2022-10-22T01:41:39.405Z,2.90
2022-10-22T01:42:12.626Z,2.30
2022-10-22T01:42:54.231Z,2.90
2022-10-22T01:43:26.241Z,2.72
2022-10-22T01:43:58.152Z,2.88
2022-10-22T01:44:31.845Z,3.00
2022-10-22T01:45:10.223Z,2.50
2022-10-22T01:45:43.567Z,2.28
2022-10-22T01:46:16.970Z,2.75
2022-10-22T01:46:50.114Z,2.80
2022-10-22T01:47:28.198Z,2.95
2022-10-22T01:48:08.601Z,2.92
2022-10-22T01:49:13.002Z,2.78
2022-10-22T01:49:51.571Z,2.80
2022-10-22T01:50:39.917Z,2.38
2022-10-22T01:51:11.895Z,2.38
2022-10-22T01:52:07.023Z,2.80
2022-10-22T01:53:02.979Z,2.40
2022-10-22T01:53:53.436Z,2.42
2022-10-22T01:54:35.597Z,2.80
2022-10-22T01:55:16.486Z,2.72
2022-10-22T01:56:14.635Z,2.83
2022-10-22T01:57:05.786Z,2.53
2022-10-22T01:57:48.839Z,2.67
2022-10-22T01:58:39.357Z,2.53
2022-10-22T01:59:17.447Z,2.50
2022-10-22T01:59:49.427Z,2.63
2022-10-22T02:00:21.633Z,2.28
2022-10-22T02:00:58.360Z,2.42
2022-10-22T02:01:33.897Z,2.55
2022-10-22T02:02:10.620Z,2.67
2022-10-22T02:02:54.768Z,2.60
2022-10-22T02:03:30.369Z,2.92
2022-10-22T02:04:20.371Z,2.53
2022-10-22T02:04:52.288Z,2.53
2022-10-22T02:05:24.206Z,2.70
2022-10-22T02:05:58.103Z,2.20
2022-10-22T02:06:31.097Z,2.55
2022-10-22T02:07:04.882Z,2.30
2022-10-22T02:07:41.487Z,2.47
2022-10-22T02:08:21.795Z,2.45
2022-10-22T02:08:54.522Z,2.50
2022-10-22T02:09:28.117Z,2.20
2022-10-22T02:10:00.850Z,2.22
2022-10-22T02:10:33.185Z,2.95
2022-10-22T02:11:05.551Z,2.85
2022-10-22T02:11:37.905Z,2.42
2022-10-22T02:12:10.630Z,2.47
2022-10-22T02:12:43.902Z,2.60
2022-10-22T02:13:17.954Z,2.55
2022-10-22T02:13:53.149Z,2.25
2022-10-22T02:14:26.312Z,2.20
2022-10-22T02:14:59.010Z,2.97
2022-10-22T02:15:31.303Z,2.33
2022-10-22T02:16:04.430Z,2.58
2022-10-22T02:16:54.956Z,2.25
2022-10-22T02:17:29.076Z,2.50
2022-10-22T02:18:01.757Z,2.15
2022-10-22T02:18:37.616Z,2.30
2022-10-22T02:19:34.509Z,2.60
2022-10-22T02:20:10.302Z,2.53
2022-10-22T02:20:42.474Z,2.67
2022-10-22T02:21:14.743Z,2.08
2022-10-22T02:21:46.743Z,2.70
2022-10-22T02:22:19.029Z,2.50
2022-10-22T02:22:51.091Z,2.45
2022-10-22T02:23:23.147Z,2.60
2022-10-22T02:23:55.157Z,2.42
2022-10-22T02:24:27.314Z,2.33
2022-10-22T02:24:59.637Z,2.67
2022-10-22T02:25:33.875Z,2.60
2022-10-22T02:26:11.701Z,2.35
2022-10-22T02:26:59.019Z,2.65
2022-10-22T02:27:33.350Z,2.47
2022-10-22T02:28:25.499Z,2.45
2022-10-22T02:29:00.981Z,2.53
2022-10-22T02:29:46.891Z,2.20
2022-10-22T02:30:20.047Z,2.35
2022-10-22T02:30:54.797Z,1.95
2022-10-22T02:31:29.288Z,2.53
2022-10-22T02:32:02.513Z,2.60
2022-10-22T02:32:37.701Z,2.47
2022-10-22T02:33:42.178Z,2.13
2022-10-22T02:34:16.293Z,2.50
2022-10-22T02:34:49.558Z,2.20
2022-10-22T02:35:23.226Z,2.10
2022-10-22T02:35:55.634Z,2.30
2022-10-22T02:36:28.560Z,2.38
2022-10-22T02:37:01.605Z,2.55
2022-10-22T02:37:33.919Z,2.35
2022-10-22T02:38:06.314Z,2.55
2022-10-22T02:38:38.546Z,2.35
2022-10-22T02:39:11.130Z,2.53
2022-10-22T02:39:43.360Z,2.30
2022-10-22T02:40:16.046Z,2.45
2022-10-22T02:40:48.038Z,2.22
2022-10-22T02:41:20.386Z,2.60
2022-10-22T02:41:52.396Z,2.45
2022-10-22T02:42:25.558Z,2.35
2022-10-22T02:42:57.544Z,2.60
2022-10-22T02:43:29.860Z,1.98
2022-10-22T02:44:03.037Z,2.33
2022-10-22T02:44:34.988Z,2.60
2022-10-22T02:45:07.245Z,2.65
2022-10-22T02:45:39.176Z,2.55
2022-10-22T02:46:11.400Z,2.88
2022-10-22T02:46:43.585Z,2.42
2022-10-22T02:47:15.557Z,2.55
2022-10-22T02:47:47.577Z,2.80
2022-10-22T02:48:56.403Z,2.67
2022-10-22T02:49:28.436Z,2.70
2022-10-22T02:50:00.454Z,2.85
2022-10-22T02:50:32.592Z,2.85
2022-10-22T02:51:04.589Z,2.80
2022-10-22T02:51:36.543Z,2.80
2022-10-22T02:52:08.738Z,2.83
2022-10-22T02:52:40.962Z,3.15
2022-10-22T02:53:13.211Z,3.17
2022-10-22T02:53:45.852Z,2.88
2022-10-22T02:54:17.780Z,3.13
2022-10-22T02:54:49.824Z,3.10
2022-10-22T02:55:21.868Z,3.30
2022-10-22T02:55:53.804Z,3.30
2022-10-22T02:56:25.762Z,3.08
2022-10-22T02:56:57.683Z,3.78
2022-10-22T02:57:29.643Z,3.05
2022-10-22T02:58:01.588Z,3.28
2022-10-22T02:58:33.509Z,3.33
2022-10-22T02:59:05.476Z,3.28
2022-10-22T02:59:37.424Z,3.92
2022-10-22T03:00:09.719Z,3.88
2022-10-22T03:00:41.770Z,3.45
2022-10-22T03:01:16.097Z,3.97
2022-10-22T03:01:50.919Z,4.18
2022-10-22T03:02:22.862Z,4.10
2022-10-22T03:02:54.858Z,3.60
2022-10-22T03:03:26.844Z,3.30
2022-10-22T03:03:58.804Z,3.20
2022-10-22T03:04:30.920Z,4.10
2022-10-22T03:05:03.487Z,3.92
2022-10-22T03:05:35.476Z,3.95
2022-10-22T03:06:07.518Z,4.10
2022-10-22T03:06:39.502Z,3.55
2022-10-22T03:07:11.484Z,3.83
2022-10-22T03:07:43.567Z,3.80
2022-10-22T03:08:15.596Z,3.63
2022-10-22T03:08:47.630Z,3.47
2022-10-22T03:09:22.623Z,3.90
2022-10-22T03:09:56.707Z,4.20
2022-10-22T03:10:28.768Z,3.65
2022-10-22T03:11:00.688Z,3.75
2022-10-22T03:11:32.658Z,4.07
2022-10-22T03:12:05.010Z,3.65
2022-10-22T03:12:37.003Z,3.50
2022-10-22T03:13:09.001Z,3.42
2022-10-22T03:13:40.942Z,3.65
2022-10-22T03:14:12.950Z,4.22
2022-10-22T03:14:45.096Z,4.18
2022-10-22T03:15:17.134Z,4.07
2022-10-22T03:15:50.040Z,3.72
2022-10-22T03:16:22.031Z,3.90
2022-10-22T03:16:53.954Z,3.70
2022-10-22T03:17:25.856Z,3.92
2022-10-22T03:17:57.766Z,3.65
2022-10-22T03:18:29.692Z,3.47
2022-10-22T03:19:02.021Z,3.55
2022-10-22T03:19:34.046Z,4.10
2022-10-22T03:20:06.214Z,3.30
2022-10-22T03:20:38.116Z,3.28
2022-10-22T03:21:12.578Z,3.42
2022-10-22T03:21:52.910Z,3.80
2022-10-22T03:22:29.382Z,3.72
2022-10-22T03:23:01.966Z,3.47
2022-10-22T03:23:34.042Z,4.00
2022-10-22T03:24:09.155Z,3.60
2022-10-22T03:24:52.216Z,4.15
2022-10-22T03:25:25.358Z,3.88
2022-10-22T03:26:36.454Z,3.70
2022-10-22T03:27:08.891Z,3.72
2022-10-22T03:27:42.057Z,4.20
2022-10-22T03:28:15.526Z,4.25
2022-10-22T03:28:48.646Z,3.83
2022-10-22T03:29:22.382Z,3.55
2022-10-22T03:29:55.591Z,3.47
2022-10-22T03:30:27.533Z,3.67
2022-10-22T03:30:59.453Z,3.65
2022-10-22T03:31:31.642Z,3.80
2022-10-22T03:32:03.712Z,3.58
2022-10-22T03:32:35.634Z,3.20
2022-10-22T03:33:07.546Z,3.63
2022-10-22T03:33:39.516Z,3.53
2022-10-22T03:34:13.433Z,3.10
2022-10-22T03:34:45.439Z,3.67
2022-10-22T03:35:17.432Z,3.47
2022-10-22T03:35:49.399Z,3.47
2022-10-22T03:36:21.426Z,3.53
2022-10-22T03:36:53.640Z,3.65
2022-10-22T03:37:25.809Z,3.70
2022-10-22T03:37:59.948Z,3.58
2022-10-22T03:38:31.963Z,3.58
2022-10-22T03:39:04.659Z,3.60
2022-10-22T03:39:37.051Z,3.58
2022-10-22T03:40:09.685Z,3.45
2022-10-22T03:40:42.721Z,4.15
2022-10-22T03:41:14.902Z,3.28
2022-10-22T03:41:48.191Z,3.45
2022-10-22T03:42:20.902Z,3.40
2022-10-22T03:42:52.971Z,3.47
2022-10-22T03:43:25.014Z,3.25
2022-10-22T03:43:57.589Z,3.58
2022-10-22T03:44:30.159Z,3.63
2022-10-22T03:45:02.079Z,3.22
2022-10-22T03:45:34.102Z,3.38
2022-10-22T03:46:06.168Z,3.53
2022-10-22T03:46:38.122Z,3.63
2022-10-22T03:47:10.106Z,3.45
2022-10-22T03:47:42.431Z,3.05
2022-10-22T03:48:14.502Z,3.60
2022-10-22T03:48:46.721Z,3.72
2022-10-22T03:49:18.664Z,3.60
2022-10-22T03:49:51.412Z,3.38
2022-10-22T03:50:23.334Z,3.42
2022-10-22T03:50:55.343Z,3.28
2022-10-22T03:51:28.115Z,3.17
2022-10-22T03:52:10.701Z,4.00
2022-10-22T03:52:42.674Z,3.45
2022-10-22T03:53:14.639Z,3.70
2022-10-22T03:53:46.625Z,3.40
2022-10-22T03:54:18.611Z,3.33
2022-10-22T03:54:50.526Z,3.15
2022-10-22T03:55:22.559Z,3.45
2022-10-22T03:55:54.603Z,3.22
2022-10-22T03:56:26.549Z,3.80
2022-10-22T03:56:58.487Z,3.22
2022-10-22T03:57:30.567Z,3.67
2022-10-22T03:58:02.664Z,2.97
2022-10-22T03:58:34.615Z,2.75
2022-10-22T03:59:06.587Z,3.20
2022-10-22T03:59:39.477Z,4.00
2022-10-22T04:00:11.682Z,3.38
2022-10-22T04:00:43.823Z,3.42
2022-10-22T04:01:15.854Z,3.70
2022-10-22T04:01:47.802Z,3.28
2022-10-22T04:02:19.791Z,3.10
2022-10-22T04:02:51.742Z,3.22
2022-10-22T04:03:23.670Z,3.17
2022-10-22T04:03:55.605Z,3.50
2022-10-22T04:04:27.560Z,3.10
2022-10-22T04:04:59.508Z,3.15
2022-10-22T04:05:32.447Z,3.03
2022-10-22T04:06:05.677Z,3.00
2022-10-22T04:06:37.618Z,3.38
2022-10-22T04:07:09.530Z,2.85
2022-10-22T04:07:41.636Z,3.30
2022-10-22T04:08:13.845Z,2.95
2022-10-22T04:08:45.940Z,3.17
2022-10-22T04:09:18.047Z,2.70
2022-10-22T04:09:50.073Z,3.80
2022-10-22T04:10:22.005Z,3.15
2022-10-22T04:10:53.927Z,3.10
2022-10-22T04:11:25.872Z,2.80
2022-10-22T04:11:58.131Z,3.15
2022-10-22T04:12:30.071Z,3.08
2022-10-22T04:13:02.048Z,3.45
2022-10-22T04:13:33.993Z,2.80
2022-10-22T04:14:06.066Z,2.58
2022-10-22T04:14:38.032Z,2.80
2022-10-22T04:15:10.067Z,3.30
2022-10-22T04:15:42.018Z,2.72
2022-10-22T04:16:15.509Z,3.15
2022-10-22T04:16:47.404Z,3.10
2022-10-22T04:17:19.411Z,3.10
2022-10-22T04:17:51.401Z,2.85
2022-10-22T04:18:23.706Z,3.00
2022-10-22T04:18:55.623Z,3.45
2022-10-22T04:19:27.630Z,3.03
2022-10-22T04:19:59.547Z,2.67
2022-10-22T04:20:31.518Z,3.00
2022-10-22T04:21:03.791Z,2.72
2022-10-22T04:21:35.787Z,2.92
2022-10-22T04:22:07.716Z,3.13
2022-10-22T04:22:39.656Z,3.08
2022-10-22T04:23:11.833Z,3.10
2022-10-22T04:23:47.377Z,3.42
2022-10-22T04:24:19.339Z,3.10
2022-10-22T04:25:28.107Z,3.00
2022-10-22T04:26:00.539Z,2.78
2022-10-22T04:26:32.467Z,2.67
2022-10-22T04:27:04.441Z,2.78
2022-10-22T04:27:36.550Z,2.90
2022-10-22T04:28:09.408Z,2.78
2022-10-22T04:28:41.509Z,2.72
2022-10-22T04:29:16.058Z,3.03
2022-10-22T04:29:48.858Z,2.47
2022-10-22T04:30:20.793Z,3.28
2022-10-22T04:30:52.749Z,2.72
2022-10-22T04:31:25.438Z,2.90
2022-10-22T04:31:57.441Z,2.63
2022-10-22T04:32:29.386Z,2.88
2022-10-22T04:33:01.448Z,3.28
2022-10-22T04:33:33.397Z,2.83
2022-10-22T04:34:05.299Z,3.10
2022-10-22T04:34:37.206Z,3.00
2022-10-22T04:35:09.181Z,2.88
2022-10-22T04:35:41.141Z,2.78
2022-10-22T04:36:17.457Z,3.28
2022-10-22T04:36:49.521Z,2.60
2022-10-22T04:37:21.548Z,2.80
2022-10-22T04:37:54.260Z,2.78
2022-10-22T04:38:26.160Z,2.90
2022-10-22T04:38:59.635Z,2.60
2022-10-22T04:39:31.594Z,2.53
2022-10-22T04:40:03.996Z,2.83
2022-10-22T04:40:35.971Z,3.03
2022-10-22T04:41:09.098Z,2.60
2022-10-22T04:41:41.091Z,3.03
2022-10-22T04:42:13.076Z,3.15
2022-10-22T04:42:45.022Z,3.13
2022-10-22T04:43:16.975Z,2.88
2022-10-22T04:43:49.149Z,2.92
2022-10-22T04:44:21.282Z,2.80
2022-10-22T04:44:53.214Z,2.90
2022-10-22T04:45:25.221Z,2.88
2022-10-22T04:46:00.272Z,2.63
2022-10-22T04:46:33.486Z,2.58
2022-10-22T04:47:05.481Z,2.72
2022-10-22T04:47:37.771Z,2.90
2022-10-22T04:48:09.837Z,2.45
2022-10-22T04:48:42.513Z,2.40
2022-10-22T04:49:14.471Z,2.47
2022-10-22T04:49:46.401Z,2.50
2022-10-22T04:50:18.582Z,2.90
2022-10-22T04:50:50.591Z,2.30
2022-10-22T04:51:23.847Z,2.60
2022-10-22T04:51:55.846Z,2.60
2022-10-22T04:52:27.783Z,2.58
2022-10-22T04:52:59.697Z,2.63
2022-10-22T04:53:31.701Z,2.55
2022-10-22T04:54:03.818Z,2.67
2022-10-22T04:54:35.910Z,2.63
2022-10-22T04:55:08.071Z,2.60
2022-10-22T04:55:39.992Z,2.85
2022-10-22T04:56:16.597Z,2.60
2022-10-22T04:56:48.600Z,2.42
2022-10-22T04:57:20.560Z,2.70
2022-10-22T04:57:52.500Z,2.47
2022-10-22T04:58:24.441Z,2.33
2022-10-22T04:58:58.154Z,2.92
2022-10-22T04:59:30.096Z,2.55
2022-10-22T05:00:02.096Z,2.38
2022-10-22T05:00:34.123Z,2.60
2022-10-22T05:01:25.776Z,2.35
2022-10-22T05:01:57.931Z,2.70
2022-10-22T05:02:29.926Z,2.35
2022-10-22T05:03:01.858Z,2.40
2022-10-22T05:03:33.786Z,2.30
2022-10-22T05:04:06.528Z,2.25
2022-10-22T05:04:38.446Z,2.42
2022-10-22T05:05:11.852Z,2.60
2022-10-22T05:05:43.766Z,2.70
2022-10-22T05:06:16.076Z,2.50
2022-10-22T05:06:48.096Z,2.20
2022-10-22T05:07:20.249Z,2.35
2022-10-22T05:07:52.198Z,2.50
2022-10-22T05:08:24.178Z,2.47
2022-10-22T05:08:58.110Z,2.28
2022-10-22T05:09:30.096Z,2.67
2022-10-22T05:10:02.560Z,2.50
2022-10-22T05:10:35.107Z,2.10
2022-10-22T05:11:11.066Z,2.47
2022-10-22T05:11:46.260Z,2.10
2022-10-22T05:12:18.314Z,2.40
2022-10-22T05:12:50.982Z,2.05
2022-10-22T05:13:22.944Z,2.47
2022-10-22T05:13:58.447Z,2.20
2022-10-22T05:14:30.445Z,2.33
2022-10-22T05:15:02.384Z,2.40
2022-10-22T05:15:34.304Z,2.22
2022-10-22T05:16:06.368Z,2.17
2022-10-22T05:16:38.436Z,2.00
2022-10-22T05:17:10.512Z,2.80
2022-10-22T05:17:42.742Z,2.05
2022-10-22T05:18:16.807Z,2.22
2022-10-22T05:18:53.241Z,2.35
2022-10-22T05:19:27.079Z,2.45
2022-10-22T05:19:59.044Z,2.50
2022-10-22T05:20:30.994Z,1.98
2022-10-22T05:21:03.681Z,2.70
2022-10-22T05:21:37.478Z,2.47
2022-10-22T05:22:09.473Z,2.40
2022-10-22T05:22:41.423Z,2.53
2022-10-22T05:23:13.356Z,2.08
2022-10-22T05:23:46.265Z,2.53
2022-10-22T05:24:18.228Z,2.45
2022-10-22T05:24:50.202Z,2.60
2022-10-22T05:25:22.165Z,2.33
2022-10-22T05:25:54.166Z,2.00
2022-10-22T05:26:26.736Z,3.05
2022-10-22T05:26:59.413Z,2.35
2022-10-22T05:27:31.370Z,2.22
2022-10-22T05:28:03.311Z,2.50
2022-10-22T05:28:35.618Z,2.40
2022-10-22T05:29:07.582Z,2.67
2022-10-22T05:29:39.519Z,2.45
2022-10-22T05:30:11.699Z,2.05
2022-10-22T05:30:52.392Z,2.42
2022-10-22T05:31:24.678Z,2.00
2022-10-22T05:31:56.918Z,1.92
2022-10-22T05:32:28.859Z,1.92
2022-10-22T05:33:00.782Z,2.20
2022-10-22T05:33:33.147Z,2.20
2022-10-22T05:34:05.131Z,1.85
2022-10-22T05:34:37.206Z,2.50
2022-10-22T05:35:09.228Z,2.25
2022-10-22T05:35:43.224Z,2.20
2022-10-22T05:36:20.405Z,1.88
2022-10-22T05:36:52.386Z,2.42
2022-10-22T05:37:24.352Z,2.40
2022-10-22T05:38:33.843Z,1.98
2022-10-22T05:39:06.034Z,1.90
2022-10-22T05:39:40.232Z,1.95
2022-10-22T05:40:19.486Z,2.10
2022-10-22T05:41:08.539Z,2.28
2022-10-22T05:41:40.514Z,1.92
2022-10-22T05:42:12.530Z,2.50
2022-10-22T05:42:44.437Z,2.15
2022-10-22T05:43:16.396Z,1.98
2022-10-22T05:43:48.511Z,2.20
2022-10-22T05:44:20.619Z,2.00
2022-10-22T05:44:52.594Z,2.25
2022-10-22T05:45:24.524Z,2.08
2022-10-22T05:45:56.531Z,2.13
2022-10-22T05:46:29.594Z,2.00
2022-10-22T05:47:01.551Z,2.08
2022-10-22T05:47:33.555Z,1.90
2022-10-22T05:48:06.078Z,2.35
2022-10-22T05:48:38.636Z,2.10
2022-10-22T05:49:14.719Z,2.10
2022-10-22T05:49:46.722Z,2.35
2022-10-22T05:50:18.716Z,1.80
2022-10-22T05:50:50.819Z,1.85
2022-10-22T05:51:24.294Z,2.63
2022-10-22T05:51:56.282Z,2.40
2022-10-22T05:52:28.181Z,1.77
2022-10-22T05:53:00.097Z,1.88
2022-10-22T05:53:32.613Z,2.03
2022-10-22T05:54:05.889Z,1.88
2022-10-22T05:54:37.920Z,2.03
2022-10-22T05:55:09.888Z,2.15
2022-10-22T05:55:41.827Z,2.00
2022-10-22T05:56:15.170Z,2.15
2022-10-22T05:56:47.083Z,1.97
2022-10-22T05:57:19.019Z,2.08
2022-10-22T05:57:50.960Z,1.90
2022-10-22T05:58:22.945Z,1.90
2022-10-22T05:58:55.106Z,2.00
2022-10-22T05:59:27.179Z,2.17
2022-10-22T05:59:59.164Z,2.28
2022-10-22T06:00:31.111Z,1.90
2022-10-22T06:01:07.344Z,2.00
2022-10-22T06:01:39.884Z,2.25
2022-10-22T06:02:12.013Z,2.08
2022-10-22T06:02:44.031Z,1.95
2022-10-22T06:03:15.979Z,2.00
2022-10-22T06:03:48.410Z,2.15
2022-10-22T06:04:20.396Z,1.65
2022-10-22T06:04:52.511Z,2.13
2022-10-22T06:05:24.527Z,2.17
2022-10-22T06:05:56.444Z,2.42
2022-10-22T06:06:43.050Z,1.73
2022-10-22T06:07:15.882Z,1.90
2022-10-22T06:07:47.905Z,1.83
2022-10-22T06:08:19.885Z,1.60
2022-10-22T06:08:52.379Z,2.20
2022-10-22T06:09:24.658Z,1.88
2022-10-22T06:09:56.743Z,2.08
2022-10-22T06:10:28.860Z,2.03
2022-10-22T06:11:00.873Z,1.88
2022-10-22T06:11:35.125Z,1.60
2022-10-22T06:12:10.809Z,1.98
2022-10-22T06:12:43.215Z,1.88
2022-10-22T06:13:15.278Z,2.20
2022-10-22T06:13:47.894Z,1.88
2022-10-22T06:14:20.439Z,2.05
2022-10-22T06:14:52.416Z,2.33
2022-10-22T06:15:24.467Z,1.50
2022-10-22T06:15:56.465Z,2.08
2022-10-22T06:16:29.067Z,1.90
2022-10-22T06:17:01.092Z,2.33
2022-10-22T06:17:33.147Z,1.83
2022-10-22T06:18:05.149Z,2.00
2022-10-22T06:18:37.326Z,2.00
2022-10-22T06:19:13.221Z,1.90
2022-10-22T06:19:45.470Z,1.58
2022-10-22T06:20:17.529Z,1.60
2022-10-22T06:20:49.574Z,2.15
2022-10-22T06:21:21.490Z,2.30
2022-10-22T06:21:53.863Z,2.42
2022-10-22T06:22:25.816Z,2.20
2022-10-22T06:22:58.208Z,2.00
2022-10-22T06:23:30.173Z,2.92
2022-10-22T06:24:02.456Z,3.08
2022-10-22T06:24:34.461Z,2.30
2022-10-22T06:25:08.188Z,2.90
2022-10-22T06:25:40.204Z,2.35
2022-10-22T06:26:12.378Z,2.45
2022-10-22T06:26:44.330Z,1.92
2022-10-22T06:27:16.311Z,1.83
2022-10-22T06:27:49.457Z,2.38
2022-10-22T06:28:21.519Z,2.20
2022-10-22T06:28:55.088Z,2.45
2022-10-22T06:29:27.185Z,2.20
2022-10-22T06:29:59.117Z,2.17
2022-10-22T06:30:31.121Z,2.13
2022-10-22T06:31:04.235Z,2.40
2022-10-22T06:31:38.945Z,2.08
2022-10-22T06:32:10.907Z,2.17
2022-10-22T06:32:42.933Z,2.00
2022-10-22T06:33:15.060Z,2.20
2022-10-22T06:33:47.063Z,2.70
2022-10-22T06:34:19.154Z,2.55
2022-10-22T06:34:51.947Z,1.92
2022-10-22T06:35:23.879Z,2.33
2022-10-22T06:35:55.919Z,2.60
2022-10-22T06:36:27.943Z,2.30
2022-10-22T06:36:59.918Z,2.30
2022-10-22T06:37:31.865Z,2.72
2022-10-22T06:38:03.845Z,2.25
2022-10-22T06:38:35.961Z,2.07
2022-10-22T06:39:10.955Z,2.15
2022-10-22T06:39:42.912Z,2.17
2022-10-22T06:40:16.411Z,2.47
2022-10-22T06:40:48.351Z,2.38
2022-10-22T06:41:23.035Z,2.20
2022-10-22T06:41:57.727Z,1.92
2022-10-22T06:42:29.742Z,2.50
2022-10-22T06:43:01.817Z,2.20
2022-10-22T06:43:33.784Z,2.50
2022-10-22T06:44:05.917Z,2.17
2022-10-22T06:44:37.859Z,2.38
2022-10-22T06:45:10.220Z,2.27
2022-10-22T06:45:42.208Z,2.60
2022-10-22T06:46:19.001Z,2.17
2022-10-22T06:46:52.472Z,2.17
2022-10-22T06:47:24.483Z,2.25
2022-10-22T06:47:56.413Z,2.30
2022-10-22T06:48:28.444Z,1.95
2022-10-22T06:49:02.435Z,2.25
2022-10-22T06:49:34.368Z,2.00
2022-10-22T06:50:06.544Z,2.33
2022-10-22T06:50:38.460Z,2.33
2022-10-22T06:51:11.822Z,2.37
2022-10-22T06:51:43.878Z,2.07
2022-10-22T06:52:16.025Z,2.47
2022-10-22T06:52:48.074Z,2.33
2022-10-22T06:53:53.393Z,2.77
2022-10-22T06:54:25.348Z,2.17
2022-10-22T06:54:57.287Z,1.73
2022-10-22T06:55:29.283Z,2.30
2022-10-22T06:56:07.913Z,1.97
2022-10-22T06:56:40.090Z,2.28
2022-10-22T06:57:12.154Z,2.38
2022-10-22T06:57:44.379Z,2.15
2022-10-22T06:58:16.451Z,2.20
2022-10-22T06:58:48.911Z,1.90
2022-10-22T06:59:20.918Z,2.47
2022-10-22T06:59:52.955Z,2.07
2022-10-22T07:00:25.210Z,1.60
2022-10-22T07:01:01.006Z,1.80
2022-10-22T07:01:34.172Z,2.03
2022-10-22T07:02:06.219Z,1.95
2022-10-22T07:02:38.470Z,2.17
2022-10-22T07:03:14.191Z,1.97
2022-10-22T07:03:46.226Z,1.90
2022-10-22T07:04:18.242Z,2.03
2022-10-22T07:04:50.178Z,1.90
2022-10-22T07:05:22.156Z,2.20
2022-10-22T07:05:54.136Z,1.63
2022-10-22T07:06:27.212Z,1.90
2022-10-22T07:06:59.178Z,1.93
2022-10-22T07:07:31.134Z,2.07
2022-10-22T07:08:03.099Z,2.73
2022-10-22T07:08:35.626Z,2.10
2022-10-22T07:09:07.755Z,2.10
2022-10-22T07:09:39.841Z,2.50
2022-10-22T07:10:11.819Z,2.00
2022-10-22T07:10:43.785Z,1.90
2022-10-22T07:11:19.944Z,1.80
2022-10-22T07:11:51.931Z,2.33
2022-10-22T07:12:23.882Z,1.90
2022-10-22T07:12:55.866Z,1.90
2022-10-22T07:13:27.863Z,2.35
2022-10-22T07:14:00.156Z,2.05
2022-10-22T07:14:32.251Z,2.00
2022-10-22T07:15:04.397Z,2.23
2022-10-22T07:15:36.362Z,1.80
2022-10-22T07:16:08.634Z,2.23
2022-10-22T07:16:43.091Z,2.07
2022-10-22T07:17:15.118Z,1.93
2022-10-22T07:17:47.058Z,2.30
2022-10-22T07:18:19.489Z,1.92
2022-10-22T07:18:51.591Z,2.50
2022-10-22T07:19:23.681Z,1.95
2022-10-22T07:19:55.698Z,2.30
2022-10-22T07:20:27.707Z,1.90
2022-10-22T07:21:00.103Z,2.05
2022-10-22T07:21:32.074Z,2.08
2022-10-22T07:22:04.051Z,2.20
2022-10-22T07:22:36.036Z,2.10
2022-10-22T07:23:07.960Z,2.05
2022-10-22T07:23:40.172Z,1.70
2022-10-22T07:24:12.212Z,2.13
2022-10-22T07:24:44.267Z,2.67
2022-10-22T07:25:16.264Z,2.38
2022-10-22T07:25:48.287Z,2.30
2022-10-22T07:26:20.597Z,2.33
2022-10-22T07:26:52.607Z,2.25
2022-10-22T07:27:24.548Z,2.27
2022-10-22T07:27:56.462Z,1.70
2022-10-22T07:28:29.016Z,2.05
2022-10-22T07:29:01.047Z,2.30
2022-10-22T07:29:33.161Z,2.00
2022-10-22T07:30:05.460Z,2.28
2022-10-22T07:30:37.823Z,2.10
2022-10-22T07:31:11.406Z,2.13